Milford, Virginia
Current Conditions -  °F | °C
As of 6:55 PM on Sunday 23 Nov 2014 (Local Time) from KEZF Reporting Station
Overcast Overcast  
Wind Chill: 55°   Ceiling: 3800
Heat Index: 55°   Visibility: 10mi
Dew Point: 48°   Wind: 6mph
Humidity: 77%   Direction: 130°SE
Pressure: 30.02"   Gusts: NA
Location:  38.02°N, 77.37°W
Report Text: KEZF 232355Z AUTO 13005KT 10SM BKN038 OVC045 13/09 A3002 RMK AO2
Loading
Personal Weather Stations






























Interactive Weather Map New forecast layout! Learn more

10-Day Weather Forecast

Advertisements
Track Severe Weather on mobile